createdAt,value
2022-09-17T00:01:05.227Z,21.20
2022-09-17T00:03:34.225Z,21.20
2022-09-17T00:06:09.807Z,21.20
2022-09-17T00:08:39.774Z,21.20
2022-09-17T00:11:15.805Z,21.10
2022-09-17T00:13:43.758Z,21.10
2022-09-17T00:16:11.117Z,21.10
2022-09-17T00:18:41.536Z,21.10
2022-09-17T00:21:19.703Z,21.10
2022-09-17T00:23:47.010Z,21.10
2022-09-17T00:26:13.941Z,21.10
2022-09-17T00:28:41.849Z,21.10
2022-09-17T00:31:10.246Z,21.10
2022-09-17T00:33:37.252Z,21.10
2022-09-17T00:36:06.403Z,21.10
2022-09-17T00:38:34.186Z,21.10
2022-09-17T00:41:02.238Z,21.10
2022-09-17T00:43:38.421Z,21.10
2022-09-17T00:46:24.142Z,21.10
2022-09-17T00:48:53.118Z,21.10
2022-09-17T00:51:25.523Z,21.10
2022-09-17T00:53:52.182Z,21.10
2022-09-17T00:56:23.588Z,21.10
2022-09-17T00:58:52.777Z,21.20
2022-09-17T01:01:19.710Z,21.10
2022-09-17T01:03:47.008Z,21.10
2022-09-17T01:06:28.239Z,21.10
2022-09-17T01:09:00.985Z,21.10
2022-09-17T01:12:01.892Z,21.10
2022-09-17T01:15:00.408Z,21.10
2022-09-17T01:17:38.799Z,21.10
2022-09-17T01:20:37.064Z,21.10
2022-09-17T01:23:26.775Z,21.10
2022-09-17T01:26:17.561Z,21.10
2022-09-17T01:28:53.680Z,21.10
2022-09-17T01:31:31.105Z,21.10
2022-09-17T01:34:28.682Z,21.10
2022-09-17T01:37:11.385Z,21.10
2022-09-17T01:40:04.873Z,21.10
2022-09-17T01:42:58.682Z,21.10
2022-09-17T01:45:38.627Z,21.10
2022-09-17T01:48:11.593Z,21.10
2022-09-17T01:50:45.643Z,21.10
2022-09-17T01:53:14.267Z,21.10
2022-09-17T01:55:45.694Z,21.10
2022-09-17T01:58:23.118Z,21.10
2022-09-17T02:00:56.191Z,21.10
2022-09-17T02:03:26.640Z,21.00
2022-09-17T02:06:17.665Z,21.10
2022-09-17T02:08:53.934Z,21.00
2022-09-17T02:11:21.118Z,21.00
2022-09-17T02:13:59.259Z,21.00
2022-09-17T02:16:32.943Z,21.00
2022-09-17T02:19:06.824Z,21.00
2022-09-17T02:21:36.503Z,21.00
2022-09-17T02:24:03.915Z,21.00
2022-09-17T02:26:32.854Z,21.00
2022-09-17T02:29:07.396Z,21.00
2022-09-17T02:31:34.341Z,21.00
2022-09-17T02:34:04.512Z,21.00
2022-09-17T02:36:32.220Z,21.00
2022-09-17T02:39:01.601Z,21.00
2022-09-17T02:42:08.188Z,21.00
2022-09-17T02:45:05.597Z,21.00
2022-09-17T02:47:52.001Z,21.00
2022-09-17T02:50:41.895Z,21.00
2022-09-17T02:53:28.708Z,21.00
2022-09-17T02:56:23.652Z,21.00
2022-09-17T02:59:02.305Z,21.00
2022-09-17T03:01:40.869Z,21.00
2022-09-17T03:04:10.502Z,21.00
2022-09-17T03:06:38.463Z,21.00
2022-09-17T03:09:05.477Z,21.00
2022-09-17T03:11:32.398Z,21.00
2022-09-17T03:13:59.111Z,21.00
2022-09-17T03:16:25.938Z,20.90
2022-09-17T03:18:52.778Z,21.00
2022-09-17T03:21:19.548Z,21.00
2022-09-17T03:23:47.159Z,21.00
2022-09-17T03:26:13.971Z,21.00
2022-09-17T03:28:40.715Z,21.00
2022-09-17T03:31:07.548Z,21.00
2022-09-17T03:33:34.285Z,21.00
2022-09-17T03:36:01.269Z,21.00
2022-09-17T03:38:28.012Z,21.00
2022-09-17T03:41:02.942Z,20.90
2022-09-17T03:43:29.917Z,20.90
2022-09-17T03:45:56.702Z,20.90
2022-09-17T03:48:23.518Z,20.90
2022-09-17T03:50:50.252Z,20.90
2022-09-17T03:53:17.108Z,20.90
2022-09-17T03:55:43.978Z,20.90
2022-09-17T03:58:10.699Z,20.90
2022-09-17T04:00:37.605Z,20.90
2022-09-17T04:03:07.488Z,20.90
2022-09-17T04:05:34.282Z,20.90
2022-09-17T04:08:01.840Z,20.90
2022-09-17T04:10:29.293Z,20.90
2022-09-17T04:12:55.993Z,20.90
2022-09-17T04:15:22.748Z,20.90
2022-09-17T04:17:49.673Z,20.90
2022-09-17T04:20:16.464Z,20.90
2022-09-17T04:22:43.219Z,20.90
2022-09-17T04:25:11.189Z,20.90
2022-09-17T04:27:37.918Z,20.90
2022-09-17T04:30:05.075Z,20.90
2022-09-17T04:32:32.025Z,20.90
2022-09-17T04:34:58.898Z,20.90
2022-09-17T04:37:25.861Z,20.90
2022-09-17T04:39:52.900Z,20.90
2022-09-17T04:42:19.742Z,20.90
2022-09-17T04:44:46.486Z,20.90
2022-09-17T04:47:13.442Z,20.90
2022-09-17T04:49:40.166Z,20.90
2022-09-17T04:52:06.956Z,20.90
2022-09-17T04:54:33.712Z,20.90
2022-09-17T04:57:00.829Z,20.90
2022-09-17T04:59:27.625Z,20.90
2022-09-17T05:01:55.125Z,20.90
2022-09-17T05:04:21.844Z,20.80
2022-09-17T05:06:48.564Z,20.90
2022-09-17T05:09:15.324Z,20.90
2022-09-17T05:11:42.134Z,20.80
2022-09-17T05:14:08.938Z,20.80
2022-09-17T05:16:35.762Z,20.80
2022-09-17T05:19:02.545Z,20.80
2022-09-17T05:21:29.261Z,20.80
2022-09-17T05:23:55.953Z,20.80
2022-09-17T05:26:22.848Z,20.80
2022-09-17T05:28:49.548Z,20.80
2022-09-17T05:31:16.320Z,20.80
2022-09-17T05:33:43.118Z,20.80
2022-09-17T05:36:09.883Z,20.80
2022-09-17T05:38:36.634Z,20.80
2022-09-17T05:41:07.057Z,20.80
2022-09-17T05:43:34.260Z,20.80
2022-09-17T05:46:05.898Z,20.80
2022-09-17T05:48:32.753Z,20.80
2022-09-17T05:50:59.516Z,20.80
2022-09-17T05:53:26.296Z,20.80
2022-09-17T05:55:57.397Z,20.80
2022-09-17T05:58:24.883Z,20.80
2022-09-17T06:00:51.798Z,20.80
2022-09-17T06:03:20.493Z,20.80
2022-09-17T06:05:55.487Z,20.80
2022-09-17T06:08:23.101Z,20.80
2022-09-17T06:10:49.840Z,20.80
2022-09-17T06:13:19.662Z,20.80
2022-09-17T06:15:51.475Z,20.80
2022-09-17T06:18:18.571Z,20.80
2022-09-17T06:20:54.016Z,20.80
2022-09-17T06:23:21.310Z,20.80
2022-09-17T06:25:56.280Z,20.80
2022-09-17T06:28:23.457Z,20.80
2022-09-17T06:30:54.259Z,20.80
2022-09-17T06:33:22.016Z,20.80
2022-09-17T06:35:49.125Z,20.80
2022-09-17T06:38:15.979Z,20.80
2022-09-17T06:40:42.712Z,20.80
2022-09-17T06:43:09.428Z,20.80
2022-09-17T06:45:36.556Z,20.80
2022-09-17T06:48:06.603Z,20.80
2022-09-17T06:50:33.409Z,20.80
2022-09-17T06:53:00.098Z,20.80
2022-09-17T06:55:28.242Z,20.80
2022-09-17T06:57:59.074Z,20.80
2022-09-17T07:00:25.859Z,20.80
2022-09-17T07:02:59.403Z,20.80
2022-09-17T07:05:27.820Z,20.80
2022-09-17T07:07:55.110Z,20.80
2022-09-17T07:10:26.864Z,20.80
2022-09-17T07:12:54.639Z,20.80
2022-09-17T07:15:22.001Z,20.80
2022-09-17T07:17:48.782Z,20.80
2022-09-17T07:20:15.829Z,20.80
2022-09-17T07:22:42.598Z,20.80
2022-09-17T07:25:10.301Z,20.80
2022-09-17T07:27:37.065Z,20.80
2022-09-17T07:30:04.687Z,20.80
2022-09-17T07:32:31.689Z,20.80
2022-09-17T07:34:58.500Z,20.80
2022-09-17T07:37:25.299Z,20.80
2022-09-17T07:39:52.122Z,20.80
2022-09-17T07:42:18.909Z,20.80
2022-09-17T07:44:46.745Z,20.80
2022-09-17T07:47:13.583Z,20.80
2022-09-17T07:49:40.287Z,20.80
2022-09-17T07:52:07.295Z,20.80
2022-09-17T07:54:36.856Z,20.80
2022-09-17T07:57:04.061Z,20.80
2022-09-17T07:59:30.965Z,20.80
2022-09-17T08:01:57.691Z,20.80
2022-09-17T08:04:24.455Z,20.80
2022-09-17T08:06:51.226Z,20.80
2022-09-17T08:09:18.684Z,20.80
2022-09-17T08:11:55.575Z,20.70
2022-09-17T08:14:28.427Z,20.80
2022-09-17T08:16:56.679Z,20.80
2022-09-17T08:19:23.369Z,20.80
2022-09-17T08:21:50.143Z,20.80
2022-09-17T08:24:16.888Z,20.80
2022-09-17T08:26:43.629Z,20.80
2022-09-17T08:29:11.269Z,20.80
2022-09-17T08:31:38.135Z,20.80
2022-09-17T08:34:08.958Z,20.80
2022-09-17T08:36:36.822Z,20.80
2022-09-17T08:39:03.856Z,20.80
2022-09-17T08:42:07.727Z,20.80
2022-09-17T08:44:40.950Z,20.80
2022-09-17T08:47:14.397Z,20.80
2022-09-17T08:49:49.185Z,20.80
2022-09-17T08:52:27.870Z,20.80
2022-09-17T08:55:18.669Z,20.80
2022-09-17T08:58:00.362Z,20.80
2022-09-17T09:00:41.191Z,20.80
2022-09-17T09:03:46.671Z,20.80
2022-09-17T09:06:15.623Z,20.80
2022-09-17T09:08:47.709Z,20.80
2022-09-17T09:11:18.365Z,20.80
2022-09-17T09:13:56.995Z,20.80
2022-09-17T09:16:27.862Z,20.80
2022-09-17T09:18:56.391Z,20.80
2022-09-17T09:21:36.481Z,20.80
2022-09-17T09:24:26.203Z,20.80
2022-09-17T09:27:29.125Z,20.80
2022-09-17T09:30:04.234Z,20.80
2022-09-17T09:32:46.113Z,20.80
2022-09-17T09:35:20.266Z,20.80
2022-09-17T09:37:57.626Z,20.80
2022-09-17T09:40:30.484Z,20.80
2022-09-17T09:43:01.874Z,20.80
2022-09-17T09:45:38.381Z,20.80
2022-09-17T09:48:16.723Z,20.80
2022-09-17T09:51:28.739Z,20.80
2022-09-17T09:53:55.407Z,20.80
2022-09-17T09:56:24.853Z,20.80
2022-09-17T09:58:51.632Z,20.80
2022-09-17T10:01:23.279Z,20.80
2022-09-17T10:03:52.614Z,20.80
2022-09-17T10:06:19.955Z,20.80
2022-09-17T10:08:55.189Z,20.80
2022-09-17T10:11:27.821Z,20.80
2022-09-17T10:14:24.531Z,20.80
2022-09-17T10:17:21.017Z,20.80
2022-09-17T10:20:12.668Z,20.80
2022-09-17T10:22:46.993Z,20.80
2022-09-17T10:25:30.509Z,20.90
2022-09-17T10:27:59.896Z,20.90
2022-09-17T10:30:27.510Z,20.90
2022-09-17T10:33:18.358Z,20.90
2022-09-17T10:35:58.990Z,20.90
2022-09-17T10:38:32.549Z,20.90
2022-09-17T10:41:21.654Z,20.90
2022-09-17T10:43:49.631Z,20.90
2022-09-17T10:46:25.202Z,20.90
2022-09-17T10:48:59.353Z,20.90
2022-09-17T10:51:26.725Z,20.90
2022-09-17T10:54:12.664Z,21.00
2022-09-17T10:56:45.575Z,20.90
2022-09-17T10:59:25.166Z,21.00
2022-09-17T11:02:19.613Z,21.00
2022-09-17T11:05:03.757Z,20.90
2022-09-17T11:08:01.700Z,21.00
2022-09-17T11:10:38.307Z,21.00
2022-09-17T11:13:12.959Z,20.90
2022-09-17T11:15:57.488Z,21.00
2022-09-17T11:18:39.733Z,21.00
2022-09-17T11:21:46.424Z,21.00
2022-09-17T11:24:48.881Z,21.00
2022-09-17T11:27:47.136Z,21.00
2022-09-17T11:30:19.128Z,21.00
2022-09-17T11:33:00.881Z,21.00
2022-09-17T11:35:33.601Z,21.00
2022-09-17T11:38:32.328Z,21.00
2022-09-17T11:41:22.381Z,21.10
2022-09-17T11:44:00.978Z,21.00
2022-09-17T11:46:37.936Z,21.00
2022-09-17T11:49:26.153Z,21.00
2022-09-17T11:52:02.492Z,21.00
2022-09-17T11:54:32.009Z,21.00
2022-09-17T11:57:25.023Z,21.00
2022-09-17T11:59:51.696Z,21.00
2022-09-17T12:02:39.995Z,21.00
2022-09-17T12:05:14.629Z,21.10
2022-09-17T12:07:54.721Z,21.10
2022-09-17T12:10:43.052Z,21.00
2022-09-17T12:13:23.281Z,21.10
2022-09-17T12:15:57.742Z,21.10
2022-09-17T12:18:37.965Z,21.10
2022-09-17T12:21:08.424Z,21.10
2022-09-17T12:23:44.248Z,21.10
2022-09-17T12:26:33.910Z,21.10
2022-09-17T12:29:26.134Z,21.10
2022-09-17T12:32:09.150Z,21.20
2022-09-17T12:34:44.637Z,21.20
2022-09-17T12:37:24.569Z,21.20
2022-09-17T12:40:00.290Z,21.20
2022-09-17T12:42:27.012Z,21.20
2022-09-17T12:45:24.069Z,21.20
2022-09-17T12:48:16.590Z,21.20
2022-09-17T12:50:59.167Z,21.30
2022-09-17T12:53:56.199Z,21.30
2022-09-17T12:56:45.012Z,21.30
2022-09-17T12:59:16.007Z,21.40
2022-09-17T13:02:12.781Z,21.40
2022-09-17T13:05:01.311Z,21.40
2022-09-17T13:07:53.557Z,21.40
2022-09-17T13:10:20.256Z,21.50
2022-09-17T13:13:19.636Z,21.50
2022-09-17T13:16:21.511Z,21.50
2022-09-17T13:19:16.077Z,21.50
2022-09-17T13:21:55.056Z,21.50
2022-09-17T13:24:29.713Z,21.50
2022-09-17T13:26:58.676Z,21.50
2022-09-17T13:29:43.907Z,21.50
2022-09-17T13:32:33.478Z,21.50
2022-09-17T13:35:15.205Z,21.60
2022-09-17T13:37:52.625Z,21.60
2022-09-17T13:40:48.903Z,21.60
2022-09-17T13:43:18.729Z,21.70
2022-09-17T13:46:14.384Z,21.70
2022-09-17T13:48:49.455Z,21.80
2022-09-17T13:51:32.076Z,21.90
2022-09-17T13:54:00.388Z,21.90
2022-09-17T13:56:35.629Z,22.00
2022-09-17T13:59:11.496Z,22.00
2022-09-17T14:01:56.260Z,22.10
2022-09-17T14:04:33.749Z,22.10
2022-09-17T14:07:00.737Z,22.10
2022-09-17T14:09:50.967Z,22.20
2022-09-17T14:12:53.425Z,22.20
2022-09-17T14:15:43.225Z,22.30
2022-09-17T14:18:28.233Z,22.40
2022-09-17T14:21:24.574Z,22.50
2022-09-17T14:23:56.408Z,22.50
2022-09-17T14:26:40.741Z,22.50
2022-09-17T14:29:48.717Z,22.50
2022-09-17T14:32:20.953Z,22.50
2022-09-17T14:34:49.732Z,22.50
2022-09-17T14:37:20.694Z,22.40
2022-09-17T14:39:49.115Z,22.40
2022-09-17T14:42:24.041Z,22.40
2022-09-17T14:45:00.145Z,22.40
2022-09-17T14:47:27.274Z,22.40
2022-09-17T14:49:54.602Z,22.40
2022-09-17T14:52:32.102Z,22.50
2022-09-17T14:55:10.898Z,22.60
2022-09-17T14:57:38.097Z,22.60
2022-09-17T15:00:10.929Z,22.70
2022-09-17T15:02:41.872Z,22.70
2022-09-17T15:05:33.430Z,22.80
2022-09-17T15:08:35.901Z,22.90
2022-09-17T15:11:07.377Z,22.90
2022-09-17T15:13:42.288Z,22.80
2022-09-17T15:16:25.722Z,22.80
2022-09-17T15:18:56.618Z,22.80
2022-09-17T15:21:41.395Z,22.80
2022-09-17T15:24:26.818Z,22.80
2022-09-17T15:26:57.262Z,22.80
2022-09-17T15:29:28.271Z,22.90
2022-09-17T15:31:55.361Z,22.90
2022-09-17T15:34:23.166Z,23.00
2022-09-17T15:37:25.151Z,23.00
2022-09-17T15:39:55.491Z,23.00
2022-09-17T15:42:28.761Z,23.00
2022-09-17T15:45:08.941Z,23.10
2022-09-17T15:47:36.459Z,23.10
2022-09-17T15:50:30.669Z,23.10
2022-09-17T15:53:09.628Z,23.00
2022-09-17T15:55:45.803Z,23.00
2022-09-17T15:58:30.521Z,22.90
2022-09-17T16:01:15.365Z,22.90
2022-09-17T16:03:43.330Z,22.90
2022-09-17T16:06:19.217Z,22.90
2022-09-17T16:08:51.416Z,22.90
2022-09-17T16:11:20.030Z,22.90
2022-09-17T16:13:51.165Z,22.90
2022-09-17T16:16:33.019Z,23.00
2022-09-17T16:19:00.175Z,22.90
2022-09-17T16:21:27.009Z,22.80
2022-09-17T16:23:58.078Z,22.80
2022-09-17T16:26:33.849Z,22.70
2022-09-17T16:29:08.641Z,22.70
2022-09-17T16:31:35.448Z,22.70
2022-09-17T16:34:02.239Z,22.60
2022-09-17T16:36:31.117Z,22.60
2022-09-17T16:38:58.734Z,22.60
2022-09-17T16:41:25.569Z,22.60
2022-09-17T16:43:52.356Z,22.70
2022-09-17T16:46:19.258Z,22.70
2022-09-17T16:48:49.900Z,22.70
2022-09-17T16:51:16.691Z,22.70
2022-09-17T16:53:43.531Z,22.70
2022-09-17T16:56:12.478Z,22.70
2022-09-17T16:58:40.187Z,22.70
2022-09-17T17:01:12.505Z,22.70
2022-09-17T17:03:39.602Z,22.70
2022-09-17T17:06:06.761Z,22.70
2022-09-17T17:08:34.362Z,22.70
2022-09-17T17:11:01.570Z,22.60
2022-09-17T17:13:28.390Z,22.60
2022-09-17T17:15:55.358Z,22.60
2022-09-17T17:18:22.867Z,22.60
2022-09-17T17:20:49.754Z,22.60
2022-09-17T17:23:16.990Z,22.60
2022-09-17T17:25:43.979Z,22.50
2022-09-17T17:28:11.112Z,22.50
2022-09-17T17:30:38.513Z,22.50
2022-09-17T17:33:05.528Z,22.50
2022-09-17T17:35:32.490Z,22.40
2022-09-17T17:37:59.264Z,22.40
2022-09-17T17:40:26.757Z,22.40
2022-09-17T17:42:54.706Z,22.40
2022-09-17T17:45:21.938Z,22.40
2022-09-17T17:47:48.740Z,22.30
2022-09-17T17:50:15.960Z,22.30
2022-09-17T17:52:47.770Z,22.30
2022-09-17T17:55:15.969Z,22.30
2022-09-17T17:57:42.782Z,22.30
2022-09-17T18:00:11.942Z,22.30
2022-09-17T18:02:39.142Z,22.30
2022-09-17T18:05:06.404Z,22.30
2022-09-17T18:07:33.596Z,22.20
2022-09-17T18:10:00.390Z,22.20
2022-09-17T18:12:27.385Z,22.20
2022-09-17T18:14:54.304Z,22.20
2022-09-17T18:17:21.144Z,22.20
2022-09-17T18:19:47.870Z,22.20
2022-09-17T18:22:14.604Z,22.20
2022-09-17T18:24:41.327Z,22.20
2022-09-17T18:27:08.106Z,22.10
2022-09-17T18:29:34.836Z,22.10
2022-09-17T18:32:01.713Z,22.10
2022-09-17T18:34:28.397Z,22.10
2022-09-17T18:36:55.161Z,22.00
2022-09-17T18:42:09.254Z,22.00
2022-09-17T18:44:36.107Z,22.10
2022-09-17T18:47:02.957Z,22.10
2022-09-17T18:49:29.627Z,22.10
2022-09-17T18:51:56.414Z,22.00
2022-09-17T18:54:23.150Z,22.00
2022-09-17T18:56:50.018Z,22.00
2022-09-17T18:59:16.831Z,22.00
2022-09-17T19:01:43.631Z,22.00
2022-09-17T19:04:11.250Z,22.00
2022-09-17T19:06:38.082Z,21.90
2022-09-17T19:09:05.451Z,22.00
2022-09-17T19:11:34.027Z,22.00
2022-09-17T19:14:01.439Z,21.90
2022-09-17T19:16:28.210Z,21.90
2022-09-17T19:18:55.069Z,21.90
2022-09-17T19:21:21.977Z,21.90
2022-09-17T19:23:50.504Z,21.90
2022-09-17T19:26:22.583Z,21.90
2022-09-17T19:28:52.950Z,21.90
2022-09-17T19:31:19.951Z,21.90
2022-09-17T19:33:47.594Z,21.90
2022-09-17T19:36:16.339Z,21.90
2022-09-17T19:38:43.867Z,21.90
2022-09-17T19:41:15.958Z,21.90
2022-09-17T19:43:42.983Z,21.90
2022-09-17T19:46:18.878Z,21.90
2022-09-17T19:48:54.009Z,21.80
2022-09-17T19:51:22.937Z,21.80
2022-09-17T19:53:50.083Z,21.80
2022-09-17T19:56:19.704Z,21.80
2022-09-17T19:58:47.249Z,21.80
2022-09-17T20:01:14.170Z,21.80
2022-09-17T20:03:42.866Z,21.80
2022-09-17T20:06:14.654Z,21.80
2022-09-17T20:08:49.273Z,21.80
2022-09-17T20:11:17.918Z,21.80
2022-09-17T20:13:45.024Z,21.80
2022-09-17T20:16:13.103Z,21.80
2022-09-17T20:18:40.278Z,21.70
2022-09-17T20:21:12.416Z,21.70
2022-09-17T20:23:39.403Z,21.70
2022-09-17T20:26:06.830Z,21.70
2022-09-17T20:28:34.648Z,21.70
2022-09-17T20:31:05.369Z,21.70
2022-09-17T20:33:32.707Z,21.70
2022-09-17T20:36:04.779Z,21.70
2022-09-17T20:39:10.114Z,21.70
2022-09-17T20:41:20.653Z,21.60
2022-09-17T20:43:52.587Z,21.60
2022-09-17T20:46:24.793Z,21.60
2022-09-17T20:49:06.961Z,21.60
2022-09-17T20:51:34.210Z,21.60
2022-09-17T20:54:01.750Z,21.60
2022-09-17T20:56:31.719Z,21.60
2022-09-17T20:59:08.168Z,21.60
2022-09-17T21:01:37.272Z,21.60
2022-09-17T21:04:06.793Z,21.60
2022-09-17T21:06:36.331Z,21.60
2022-09-17T21:09:03.735Z,21.50
2022-09-17T21:11:31.402Z,21.50
2022-09-17T21:14:00.304Z,21.50
2022-09-17T21:16:28.077Z,21.50
2022-09-17T21:19:01.395Z,21.50
2022-09-17T21:21:28.722Z,21.50
2022-09-17T21:24:00.974Z,21.50
2022-09-17T21:26:27.947Z,21.50
2022-09-17T21:28:56.384Z,21.50
2022-09-17T21:31:32.742Z,21.50
2022-09-17T21:34:05.685Z,21.50
2022-09-17T21:36:35.873Z,21.40
2022-09-17T21:39:06.379Z,21.40
2022-09-17T21:41:33.287Z,21.40
2022-09-17T21:44:00.207Z,21.50
2022-09-17T21:46:29.612Z,21.50
2022-09-17T21:49:00.119Z,21.40
2022-09-17T21:51:38.214Z,21.40
2022-09-17T21:54:07.564Z,21.40
2022-09-17T21:56:34.678Z,21.40
2022-09-17T21:59:04.456Z,21.40
2022-09-17T22:01:39.633Z,21.40
2022-09-17T22:04:11.119Z,21.40
2022-09-17T22:06:38.150Z,21.40
2022-09-17T22:09:06.308Z,21.40
2022-09-17T22:11:37.319Z,21.40
2022-09-17T22:14:24.703Z,21.40
2022-09-17T22:16:55.099Z,21.40
2022-09-17T22:19:23.441Z,21.30
2022-09-17T22:21:52.785Z,21.40
2022-09-17T22:24:23.304Z,21.30
2022-09-17T22:26:56.935Z,21.30
2022-09-17T22:29:25.845Z,21.30
2022-09-17T22:31:52.722Z,21.30
2022-09-17T22:34:21.847Z,21.30
2022-09-17T22:36:49.395Z,21.30
2022-09-17T22:39:16.235Z,21.30
2022-09-17T22:41:45.427Z,21.30
2022-09-17T22:44:17.986Z,21.30
2022-09-17T22:46:47.067Z,21.30
2022-09-17T22:49:14.855Z,21.30
2022-09-17T22:51:42.853Z,21.30
2022-09-17T22:54:14.676Z,21.30
2022-09-17T22:56:42.287Z,21.30
2022-09-17T22:59:09.279Z,21.30
2022-09-17T23:01:37.326Z,21.30
2022-09-17T23:04:05.128Z,21.30
2022-09-17T23:06:38.251Z,21.20
2022-09-17T23:09:06.401Z,21.30
2022-09-17T23:11:36.445Z,21.30
2022-09-17T23:14:05.916Z,21.30
2022-09-17T23:16:41.888Z,21.20
2022-09-17T23:19:09.742Z,21.30
2022-09-17T23:21:37.858Z,21.20
2022-09-17T23:24:04.880Z,21.20
2022-09-17T23:26:31.761Z,21.20
2022-09-17T23:29:03.832Z,21.20
2022-09-17T23:31:31.686Z,21.20
2022-09-17T23:33:59.479Z,21.20
2022-09-17T23:36:31.606Z,21.20
2022-09-17T23:38:59.573Z,21.20
2022-09-17T23:41:29.197Z,21.20
2022-09-17T23:43:58.376Z,21.20
2022-09-17T23:46:26.993Z,21.20
2022-09-17T23:48:54.148Z,21.20
2022-09-17T23:51:22.546Z,21.20
2022-09-17T23:53:49.811Z,21.20
2022-09-17T23:56:21.222Z,21.20
2022-09-17T23:58:49.106Z,21.20
